Flight Track Log - Related Links

Times and Time Zones

All times are in EST time to prevent confusion due to time zone crossing. See the PDT4389 flight status page for this flight to view local times or setup timezone preferences in your user account.

Time Position Orientation Groundspeed Altitude Reporting Facility
EST Latitude Longitude Course Direction KTS MPH feet Rate Location/Type
Tue 10:56:08 PM 38.8833 -77.0833 303° West 126 145 3,300  Level Potomac TRACON
Tue 10:57:00 PM 38.6173 -77.1556 170° South  Level Estimated
Tue 10:57:08 PM 38.8667 -77.1167 237° Southwest 136 157 4,800  Level Potomac TRACON
Tue 10:58:00 PM 38.5703 -77.0665 124° Southeast  Level FlightAware Approximate
Tue 10:58:14 PM 38.8500 -77.1667 247° West 152 175 6,100  Level Potomac TRACON
Tue 10:59:00 PM 38.4927 -77.1078 175° South  Level Estimated
Tue 10:59:08 PM 38.8167 -77.2000 218° Southwest 171 197 7,100  Level Potomac TRACON
Tue 11:00:00 PM 38.4386 -77.0258 130° Southeast  Level FlightAware Approximate
Tue 11:00:08 PM 38.7667 -77.2333 207° Southwest 194 223 8,400  Level Potomac TRACON
Tue 11:01:14 PM 38.7167 -77.2500 195° South 203 234 10,100 1,714 Climbing Potomac TRACON
Tue 11:02:14 PM 38.6667 -77.2667 195° South 182 209 12,000 1,682 Climbing Potomac TRACON
Tue 11:03:01 PM 38.6242 -77.2897 203° Southwest 167 192 13,100 1,346 Climbing Washington Center
Tue 11:04:01 PM 38.5886 -77.3047 198° South 154 177 14,400 1,250 Climbing Washington Center
Tue 11:05:01 PM 38.5467 -77.3197 196° South 154 177 15,600 1,160 Climbing Washington Center
Tue 11:06:00 PM 38.5108 -77.3403 204° Southwest 154 177 16,700 1,059 Climbing Washington Center
Tue 11:07:00 PM 38.4731 -77.3578 200° South 154 177 17,700 655 Climbing Washington Center
Tue 11:07:59 PM 38.4353 -77.3756 200° South 154 177 18,000 149 Climbing Washington Center
Tue 11:09:01 PM 38.3889 -77.4036 205° Southwest 161 185 18,000  Level Washington Center
Tue 11:09:59 PM 38.3344 -77.4261 198° South 186 214 18,000  Level Washington Center
Tue 11:11:01 PM 38.2839 -77.4514 201° Southwest 198 228 18,000  Level Washington Center
Tue 11:11:59 PM 38.2333 -77.4817 205° Southwest 198 228 18,000  Level Washington Center
Tue 11:13:00 PM 38.1808 -77.5042 199° South 198 228 18,000  Level Washington Center
Tue 11:13:59 PM 38.1264 -77.5267 198° South 204 235 18,000  Level Washington Center
Tue 11:14:59 PM 38.0844 -77.5467 201° Southwest 204 235 18,000  Level Washington Center
Tue 11:15:59 PM 38.0275 -77.5767 203° Southwest 204 235 18,000  Level Washington Center
Tue 11:17:00 PM 37.9750 -77.5964 196° South 209 241 18,000  Level Washington Center
Tue 11:17:59 PM 37.9206 -77.6186 198° South 209 241 18,000  Level Washington Center
Tue 11:19:01 PM 37.8678 -77.6436 201° Southwest 209 241 18,000  Level Washington Center
Tue 11:20:00 PM 37.8153 -77.6683 200° South 209 241 18,000  Level Washington Center
Tue 11:21:01 PM 37.7606 -77.6931 200° South 209 241 18,000  Level Washington Center
Tue 11:22:01 PM 37.7083 -77.7128 197° South 209 241 18,000  Level Washington Center
Tue 11:22:59 PM 37.6556 -77.7350 198° South 209 241 18,000  Level Washington Center
Tue 11:23:59 PM 37.6011 -77.7569 198° South 209 241 18,000  Level Washington Center
Tue 11:25:01 PM 37.5486 -77.7789 198° South 209 241 18,000  Level Washington Center
Tue 11:25:59 PM 37.4939 -77.8011 198° South 209 241 18,000  Level Washington Center
Tue 11:27:00 PM 37.4392 -77.8256 200° South 209 241 18,000  Level Washington Center
Tue 11:28:01 PM 37.3867 -77.8503 201° Southwest 209 241 18,000  Level Washington Center
Tue 11:29:01 PM 37.3317 -77.8772 201° Southwest 209 241 18,000  Level Washington Center
Tue 11:29:59 PM 37.2772 -77.8992 198° South 209 241 18,000  Level Washington Center
Tue 11:31:00 PM 37.2225 -77.9211 198° South 209 241 18,000  Level Washington Center
Tue 11:31:58 PM 37.1700 -77.9428 198° South 209 241 18,000  Level Washington Center
Tue 11:33:01 PM 37.1111 -77.9697 200° South 209 241 18,000  Level Washington Center
Tue 11:34:00 PM 37.0583 -77.9914 198° South 209 241 18,000  Level Washington Center
Tue 11:34:59 PM 37.0078 -78.0158 201° Southwest 209 241 18,000  Level Washington Center
Tue 11:35:59 PM 36.9531 -78.0375 198° South 209 241 18,000  Level Washington Center
Tue 11:36:59 PM 36.9006 -78.0567 196° South 209 241 18,000  Level Washington Center
Tue 11:37:59 PM 36.8500 -78.0836 203° Southwest 203 234 18,000  Level Washington Center
Tue 11:38:59 PM 36.7994 -78.1081 201° Southwest 203 234 18,000  Level Washington Center
Tue 11:39:59 PM 36.7467 -78.1297 198° South 203 234 18,000  Level Washington Center
Tue 11:41:01 PM 36.6942 -78.1511 198° South 203 234 18,000  Level Washington Center
Tue 11:41:59 PM 36.6456 -78.1756 202° Southwest 203 234 18,000  Level Washington Center
Tue 11:42:37 PM 36.6056 -78.1922 198° South 197 227 18,000  Level Washington Center
Tue 11:42:59 PM 36.5950 -78.1972 201° Southwest 203 234 18,000 -324 Level Washington Center
Tue 11:43:14 PM 36.5742 -78.2042 195° South 198 228 17,800 -100 Descending Washington Center
Tue 11:43:59 PM 36.5383 -78.2158 195° South 208 239 17,900 -190 Climbing Washington Center
Tue 11:44:17 PM 36.5131 -78.2281 201° Southwest 216 249 17,600 -590 Descending Washington Center
Tue 11:45:00 PM 36.4833 -78.2475 208° Southwest 213 245 17,300 -621 Descending Washington Center
Tue 11:45:15 PM 36.4561 -78.2544 192° South 228 262 17,000 -712 Descending Washington Center
Tue 11:45:59 PM 36.4222 -78.2739 205° Southwest 218 251 16,600 -643 Descending Washington Center
Tue 11:46:11 PM 36.4014 -78.2808 195° South 228 262 16,400 -689 Descending Washington Center
Tue 11:47:00 PM 36.3528 -78.3025 200° South 234 269 15,900 -600 Descending Washington Center
Tue 11:47:11 PM 36.3422 -78.3072 200° South 233 268 15,800 -508 Descending Washington Center
Tue 11:47:59 PM 36.2939 -78.3314 202° Southwest 234 269 15,400 -600 Descending Washington Center
Tue 11:48:11 PM 36.2811 -78.3361 197° South 236 272 15,200 -700 Descending Washington Center
Tue 11:48:59 PM 36.2306 -78.3575 199° South 234 269 14,700 -581 Descending Washington Center
Tue 11:49:13 PM 36.2178 -78.3647 205° Southwest 237 273 14,600 -508 Descending Washington Center
Tue 11:49:58 PM 36.1714 -78.3864 201° Southwest 234 269 14,200 -590 Descending Washington Center
Tue 11:50:14 PM 36.1567 -78.3936 202° Southwest 236 272 14,000 -677 Descending Washington Center
Tue 11:51:00 PM 36.1061 -78.4147 199° South 234 269 13,500 -621 Descending Washington Center
Tue 11:51:12 PM 36.0936 -78.4194 197° South 238 274 13,400 -610 Descending Washington Center
Tue 11:51:59 PM 36.0450 -78.4408 200° South 234 269 12,900 -581 Descending Washington Center
Tue 11:52:14 PM 36.0281 -78.4481 199° South 240 276 12,800 -560 Descending Washington Center
Tue 11:53:14 PM 35.9669 -78.4739 199° South 242 278 12,200 -585 Descending Washington Center
Tue 11:54:17 PM 35.8975 -78.5022 198° South 243 280 11,600 -645 Descending Washington Center
Tue 11:55:15 PM 35.8300 -78.5306 199° South 245 282 10,900 -619 Descending Washington Center
Tue 11:56:23 PM 35.7644 -78.5614 201° Southwest 245 282 10,300 -529 Descending Washington Center
Tue 11:58:00 PM 35.6782 -78.5851 195° South  Level FlightAware Approximate
Wed 12:05:00 AM 35.2822 -78.7552 199° South  Level FlightAware Approximate
Wed 12:06:00 AM 35.2256 -78.7795 199° South  Level FlightAware Approximate
Wed 12:07:00 AM 35.1671 -78.7957 192° South  Level FlightAware Approximate
Wed 12:08:00 AM 35.1134 -78.8247 198° South  Level FlightAware Approximate
Wed 12:09:00 AM 35.0564 -78.8475 198° South  Level FlightAware Approximate
Wed 12:10:00 AM 34.9978 -78.8631 192° South  Level FlightAware Approximate
Wed 12:11:00 AM 34.9833 -78.8667 192° South  Level FlightAware Approximate
Wed 12:12:00 AM 34.9912 -78.8803 192° South  Level Estimated

Login

Don't have an account? Register now (free) for customized features, flight alerts, and more!